Time;durP1;ratioP1;P1;durP2;ratioP2;P2;SDS_P1;SDS_P2;PMS_P1;PMS_P2;Temp;Humidity;BMP_temperature;BMP_pressure;BME280_temperature;BME280_humidity;BME280_pressure;Samples;Min_cycle;Max_cycle;Signal;HPM_P1;HPM_P2
2022/04/04 00:01:21;;;;;;;16.63;13.15;;;;;;;3.77;65.23;98959.28;5012299;28;20461;-79
2022/04/04 00:03:46;;;;;;;17.00;14.27;;;;;;;3.75;65.85;98953.41;5013869;28;20094;-79
2022/04/04 00:06:11;;;;;;;18.08;14.90;;;;;;;3.76;65.48;98955.00;4998118;28;20072;-79
2022/04/04 00:08:37;;;;;;;16.83;15.00;;;;;;;3.71;65.74;98942.41;4981699;28;20053;-79
2022/04/04 00:11:02;;;;;;;18.23;13.90;;;;;;;3.75;65.57;98943.66;4999291;28;20108;-79
2022/04/04 00:13:28;;;;;;;17.00;15.20;;;;;;;3.84;65.44;98938.16;4994489;28;20370;-79
2022/04/04 00:15:54;;;;;;;19.92;15.43;;;;;;;3.77;65.31;98935.53;5029522;28;20034;-79
2022/04/04 00:18:19;;;;;;;18.60;15.02;;;;;;;3.73;65.58;98929.81;5012266;28;20503;-79
2022/04/04 00:20:45;;;;;;;16.98;14.85;;;;;;;3.78;65.74;98922.13;5015590;28;20030;-79
2022/04/04 00:23:14;;;;;;;18.98;14.82;;;;;;;3.72;65.79;98930.03;5015433;28;20037;-79
2022/04/04 00:25:41;;;;;;;19.73;15.57;;;;;;;3.73;66.11;98921.91;5016659;28;20034;-79
2022/04/04 00:28:06;;;;;;;25.67;16.95;;;;;;;3.71;65.50;98926.56;5014278;28;20040;-79
2022/04/04 00:30:32;;;;;;;19.73;16.70;;;;;;;3.70;66.14;98929.44;4996140;28;20033;-78
2022/04/04 00:32:57;;;;;;;17.38;14.93;;;;;;;3.70;66.04;98921.50;5015050;28;20064;-79
2022/04/04 00:35:22;;;;;;;18.98;15.80;;;;;;;3.67;66.26;98914.81;4980300;28;20350;-79
2022/04/04 00:37:47;;;;;;;17.27;14.88;;;;;;;3.66;65.98;98918.47;4992151;28;20076;-79
2022/04/04 00:40:13;;;;;;;21.88;15.35;;;;;;;3.70;65.91;98918.88;5012337;28;20515;-79
2022/04/04 00:42:39;;;;;;;18.95;15.00;;;;;;;3.71;66.18;98917.88;5015977;28;20029;-79
2022/04/04 00:45:05;;;;;;;20.35;16.73;;;;;;;3.70;65.99;98926.78;5010327;28;20112;-79
2022/04/04 00:47:30;;;;;;;20.98;16.98;;;;;;;3.67;66.26;98920.06;5006234;28;20034;-79
2022/04/04 00:49:56;;;;;;;21.00;16.27;;;;;;;3.63;66.23;98918.88;5021922;28;20052;-79
2022/04/04 00:52:21;;;;;;;21.65;16.65;;;;;;;3.60;66.04;98915.81;5010768;28;20562;-79
2022/04/04 00:54:47;;;;;;;19.23;16.70;;;;;;;3.58;66.27;98910.72;4975930;28;20037;-80
2022/04/04 00:57:14;;;;;;;17.48;15.65;;;;;;;3.72;65.66;98914.19;4994197;28;20497;-79
2022/04/04 00:59:39;;;;;;;21.10;16.65;;;;;;;3.67;65.95;98913.97;5011974;28;20041;-79
2022/04/04 01:02:05;;;;;;;24.00;15.90;;;;;;;3.64;65.90;98914.41;5012706;28;20388;-79
2022/04/04 01:04:30;;;;;;;20.48;16.90;;;;;;;3.59;66.30;98915.00;5007671;28;20088;-79
2022/04/04 01:06:58;;;;;;;21.27;16.23;;;;;;;3.60;65.90;98894.72;5011852;28;20067;-79
2022/04/04 01:09:24;;;;;;;18.75;15.68;;;;;;;3.57;65.64;98906.47;5004746;28;20536;-79
2022/04/04 01:12:07;;;;;;;20.65;16.55;;;;;;;3.63;65.63;98902.22;4978255;28;20029;-79
2022/04/04 01:14:46;;;;;;;19.83;16.95;;;;;;;3.66;65.40;98893.91;5009238;28;20040;-79
2022/04/04 01:17:12;;;;;;;18.65;15.73;;;;;;;3.65;66.00;98901.00;4993876;28;20030;-79
2022/04/04 01:19:37;;;;;;;18.90;15.40;;;;;;;3.61;66.23;98891.88;5012234;28;20061;-79
2022/04/04 01:22:09;;;;;;;21.88;16.65;;;;;;;3.55;65.78;98884.78;4991685;28;20113;-79
2022/04/04 01:24:37;;;;;;;18.40;15.43;;;;;;;3.62;66.05;98884.78;4992490;28;20037;-79
2022/04/04 01:27:02;;;;;;;23.48;16.02;;;;;;;3.57;65.93;98893.28;5012270;28;20048;-79
2022/04/04 01:29:28;;;;;;;21.42;16.90;;;;;;;3.67;66.08;98879.69;5028825;28;20481;-79
2022/04/04 01:31:54;;;;;;;19.23;16.23;;;;;;;3.56;66.17;98885.59;5013663;28;20040;-79
2022/04/04 01:34:21;;;;;;;20.17;17.00;;;;;;;3.56;66.32;98875.81;5009466;28;20025;-79
2022/04/04 01:36:48;;;;;;;19.27;14.95;;;;;;;3.55;66.25;98881.31;5010597;28;20304;-79
2022/04/04 01:39:13;;;;;;;18.33;14.93;;;;;;;3.62;66.47;98869.75;5008173;28;20036;-79
2022/04/04 01:41:39;;;;;;;19.20;16.38;;;;;;;3.54;66.45;98863.84;5021092;28;20393;-79
2022/04/04 01:44:04;;;;;;;22.98;16.50;;;;;;;3.56;66.13;98856.56;5009521;28;20038;-79
2022/04/04 01:46:30;;;;;;;22.17;15.85;;;;;;;3.57;65.91;98852.88;5013580;28;20018;-79
2022/04/04 01:49:01;;;;;;;21.05;16.55;;;;;;;3.55;65.97;98847.81;5013413;28;20025;-79
2022/04/04 01:51:27;;;;;;;20.08;16.20;;;;;;;3.53;65.85;98841.13;5016121;28;20025;-79
2022/04/04 01:53:53;;;;;;;21.60;15.80;;;;;;;3.51;65.88;98838.69;5009203;28;20185;-79
2022/04/04 01:56:18;;;;;;;17.05;15.25;;;;;;;3.52;66.40;98844.75;4994465;28;20053;-79
2022/04/04 01:58:44;;;;;;;19.35;16.35;;;;;;;3.47;66.70;98844.59;4987786;28;20031;-79
2022/04/04 02:01:11;;;;;;;19.38;15.50;;;;;;;3.48;66.50;98840.91;5010353;28;20036;-79
2022/04/04 02:03:37;;;;;;;20.27;16.38;;;;;;;3.50;65.98;98836.25;5004810;28;20029;-79
2022/04/04 02:06:03;;;;;;;20.60;17.50;;;;;;;3.49;66.34;98832.81;5009238;28;20044;-79
2022/04/04 02:08:29;;;;;;;19.75;15.68;;;;;;;3.46;66.54;98838.50;5011270;28;20087;-79
2022/04/04 02:10:55;;;;;;;20.10;17.25;;;;;;;3.47;66.31;98834.03;5007549;28;20401;-79
2022/04/04 02:13:23;;;;;;;22.05;16.08;;;;;;;3.51;66.40;98830.78;5009923;28;20420;-79
2022/04/04 02:15:50;;;;;;;19.15;16.67;;;;;;;3.44;66.07;98823.88;5006776;28;20350;-79
2022/04/04 02:18:15;;;;;;;18.33;15.52;;;;;;;3.48;65.94;98830.34;5007943;28;20025;-79
2022/04/04 02:20:40;;;;;;;24.63;16.25;;;;;;;3.49;66.15;98829.34;5010825;28;20071;-79
2022/04/04 02:23:06;;;;;;;20.55;16.50;;;;;;;3.45;66.56;98820.22;5007410;28;20045;-79
2022/04/04 02:25:31;;;;;;;21.08;17.00;;;;;;;3.44;66.36;98814.13;4993150;28;20515;-79
2022/04/04 02:27:56;;;;;;;22.80;17.67;;;;;;;3.39;66.66;98808.66;5020405;28;20175;-79
2022/04/04 02:30:22;;;;;;;21.10;16.95;;;;;;;3.44;66.43;98814.13;4996308;28;20801;-79
2022/04/04 02:32:47;;;;;;;21.77;16.77;;;;;;;3.39;66.38;98815.75;4999176;28;20030;-79
2022/04/04 02:35:12;;;;;;;21.92;16.60;;;;;;;3.42;65.77;98810.91;5011384;28;20067;-79
2022/04/04 02:37:38;;;;;;;18.92;16.90;;;;;;;3.45;65.74;98812.31;4993398;28;20125;-79
2022/04/04 02:40:05;;;;;;;19.33;15.90;;;;;;;3.43;66.36;98801.94;5005770;28;20486;-79
2022/04/04 02:42:31;;;;;;;20.63;16.02;;;;;;;3.45;66.44;98796.50;5008498;28;20068;-79
2022/04/04 02:44:56;;;;;;;20.25;16.65;;;;;;;3.41;65.99;98797.88;5009015;28;20057;-79
2022/04/04 02:47:22;;;;;;;19.90;15.75;;;;;;;3.44;66.32;98792.22;5006362;28;20123;-80
2022/04/04 02:49:47;;;;;;;19.90;16.15;;;;;;;3.36;66.70;98781.88;5007068;28;20045;-79
2022/04/04 02:52:12;;;;;;;22.95;17.45;;;;;;;3.39;66.93;98784.09;5011337;28;20442;-79
2022/04/04 02:54:38;;;;;;;21.13;16.33;;;;;;;3.38;66.63;98775.41;5014103;28;20041;-79
2022/04/04 02:57:04;;;;;;;21.13;15.75;;;;;;;3.38;66.88;98771.94;4994838;28;20405;-80
2022/04/04 02:59:29;;;;;;;23.63;17.88;;;;;;;3.36;66.95;98769.50;5012327;28;20049;-79
2022/04/04 03:01:54;;;;;;;22.35;16.77;;;;;;;3.38;66.90;98764.84;5007929;28;20319;-79
2022/04/04 03:04:20;;;;;;;22.95;16.92;;;;;;;3.35;67.04;98756.50;5009634;28;20074;-79
2022/04/04 03:06:45;;;;;;;22.80;16.65;;;;;;;3.33;66.80;98755.91;5007646;28;20041;-79
2022/04/04 03:09:11;;;;;;;24.67;16.30;;;;;;;3.38;66.88;98753.47;5006298;28;20029;-80
2022/04/04 03:11:37;;;;;;;20.20;15.98;;;;;;;3.36;66.51;98748.41;5007441;28;20034;-79
2022/04/04 03:14:03;;;;;;;21.98;15.93;;;;;;;3.36;66.59;98753.69;5003169;28;20768;-80
2022/04/04 03:16:28;;;;;;;22.08;15.55;;;;;;;3.36;66.42;98753.69;5005661;28;20061;-79
2022/04/04 03:18:54;;;;;;;23.20;16.05;;;;;;;3.31;66.69;98750.03;5018592;28;20026;-79
2022/04/04 03:21:21;;;;;;;20.17;15.75;;;;;;;3.31;66.97;98740.28;5006289;28;20551;-79
2022/04/04 03:23:46;;;;;;;22.17;15.77;;;;;;;3.30;66.55;98746.56;5005266;28;20168;-80
2022/04/04 03:26:12;;;;;;;17.00;14.57;;;;;;;3.33;66.50;98738.25;5006293;28;20044;-79
2022/04/04 03:28:38;;;;;;;19.02;15.10;;;;;;;3.35;66.86;98738.03;5023378;28;20121;-79
2022/04/04 03:31:06;;;;;;;17.40;13.95;;;;;;;3.36;66.75;98737.84;5006699;28;20087;-79
2022/04/04 03:33:36;;;;;;;19.58;13.23;;;;;;;3.28;67.14;98735.41;5009413;28;20038;-82
2022/04/04 03:36:01;;;;;;;21.17;15.23;;;;;;;3.26;67.12;98732.16;5007655;28;20030;-81
2022/04/04 03:38:27;;;;;;;17.67;13.90;;;;;;;3.29;67.09;98730.97;5025206;28;20091;-82
2022/04/04 03:40:53;;;;;;;23.80;15.13;;;;;;;3.25;66.99;98714.75;5005930;28;20017;-82
2022/04/04 03:43:19;;;;;;;17.35;14.63;;;;;;;3.28;66.64;98716.94;5003819;28;20439;-82
2022/04/04 03:45:44;;;;;;;22.58;14.98;;;;;;;3.32;66.79;98709.47;4989924;28;20068;-82
2022/04/04 03:48:10;;;;;;;19.33;14.40;;;;;;;3.27;66.53;98711.88;5007190;28;20069;-82
2022/04/04 03:50:36;;;;;;;22.60;15.60;;;;;;;3.28;66.54;98714.31;5015701;28;20433;-81
2022/04/04 03:53:03;;;;;;;22.10;14.63;;;;;;;3.20;66.89;98711.09;5009532;28;20452;-81
2022/04/04 03:55:33;;;;;;;17.70;14.57;;;;;;;3.27;67.07;98710.06;5009087;28;20044;-82
2022/04/04 03:57:59;;;;;;;20.02;15.30;;;;;;;3.30;67.03;98709.63;5004901;28;20386;-82
2022/04/04 04:00:25;;;;;;;21.08;15.18;;;;;;;3.23;66.85;98715.97;5004624;28;20091;-82
2022/04/04 04:02:52;;;;;;;24.25;16.77;;;;;;;3.21;66.90;98696.91;5009492;28;20549;-82
2022/04/04 04:05:17;;;;;;;21.98;15.77;;;;;;;3.27;66.66;98702.16;5007006;28;20116;-82
2022/04/04 04:07:43;;;;;;;22.05;16.92;;;;;;;3.25;66.59;98685.72;5006169;28;20034;-82
2022/04/04 04:10:12;;;;;;;24.42;14.70;;;;;;;3.22;66.90;98686.13;5008670;28;21480;-82
2022/04/04 04:12:42;;;;;;;23.38;15.30;;;;;;;3.27;66.57;98678.44;5007318;28;20081;-82
2022/04/04 04:15:10;;;;;;;19.15;15.30;;;;;;;3.23;66.92;98668.50;5022739;28;20036;-82
2022/04/04 04:17:35;;;;;;;20.33;14.57;;;;;;;3.27;66.60;98674.97;5011264;28;20516;-82
2022/04/04 04:22:46;;;;;;;20.65;15.30;;;;;;;3.17;66.67;98658.78;5011372;28;20076;-82
2022/04/04 04:25:14;;;;;;;25.70;16.00;;;;;;;3.17;67.10;98656.13;5010776;28;21212;-82
2022/04/04 04:27:41;;;;;;;20.10;14.55;;;;;;;3.13;66.91;98658.34;5010456;28;20088;-82
2022/04/04 04:30:07;;;;;;;20.40;15.45;;;;;;;3.20;66.66;98663.63;4993757;28;20296;-82
2022/04/04 04:32:32;;;;;;;22.13;15.50;;;;;;;3.15;66.81;98664.22;5009977;28;20038;-82
2022/04/04 04:34:58;;;;;;;19.92;14.75;;;;;;;3.13;66.45;98649.63;5007473;28;20030;-82
2022/04/04 04:37:23;;;;;;;25.33;16.60;;;;;;;3.19;66.19;98646.97;4995359;28;20436;-82
2022/04/04 04:39:49;;;;;;;20.83;15.13;;;;;;;3.16;66.41;98652.69;5010358;28;20056;-82
2022/04/04 04:42:16;;;;;;;21.20;14.75;;;;;;;3.18;66.39;98642.72;5007143;28;20030;-82
2022/04/04 04:44:42;;;;;;;22.35;15.23;;;;;;;3.13;66.38;98645.16;4996223;28;20048;-82
2022/04/04 04:47:07;;;;;;;23.67;14.57;;;;;;;3.12;66.58;98640.94;5010705;28;20033;-82
2022/04/04 04:49:33;;;;;;;20.90;15.48;;;;;;;3.11;66.58;98639.28;5011820;28;20029;-81
2022/04/04 04:52:00;;;;;;;21.52;14.93;;;;;;;3.10;66.56;98642.16;5013917;28;20029;-82
2022/04/04 04:54:26;;;;;;;22.83;16.30;;;;;;;3.08;66.72;98623.09;5003699;28;20083;-82
2022/04/04 04:56:51;;;;;;;21.63;15.60;;;;;;;3.08;66.78;98629.16;5010149;28;20034;-82
2022/04/04 04:59:17;;;;;;;25.02;17.10;;;;;;;3.07;67.11;98621.44;5010706;28;20074;-83
2022/04/04 05:01:42;;;;;;;20.42;15.10;;;;;;;3.03;66.68;98618.44;4993713;28;20113;-82
2022/04/04 05:04:08;;;;;;;19.38;15.05;;;;;;;3.09;66.58;98624.69;4977120;28;20038;-82
2022/04/04 05:06:33;;;;;;;23.00;16.25;;;;;;;3.06;67.29;98627.75;5007612;28;20038;-81
2022/04/04 05:09:00;;;;;;;22.35;17.20;;;;;;;3.04;67.17;98609.50;5009865;28;20042;-82
2022/04/04 05:11:26;;;;;;;22.85;17.42;;;;;;;3.02;67.29;98607.06;4993680;28;20038;-82
2022/04/04 05:13:51;;;;;;;25.10;17.85;;;;;;;3.06;66.90;98599.53;5010324;28;20416;-82
2022/04/04 05:16:17;;;;;;;23.10;17.17;;;;;;;3.08;66.96;98612.53;5019034;28;20061;-82
2022/04/04 05:18:44;;;;;;;26.40;18.20;;;;;;;3.04;67.43;98599.75;5002509;28;20049;-82
2022/04/04 05:21:09;;;;;;;23.90;17.02;;;;;;;2.98;67.19;98590.03;5015912;28;20050;-82
2022/04/04 05:23:36;;;;;;;27.42;17.30;;;;;;;3.00;67.20;98593.28;5006856;28;20374;-82
2022/04/04 05:26:01;;;;;;;24.90;18.00;;;;;;;3.04;67.43;98591.84;5003324;28;20474;-82
2022/04/04 05:28:26;;;;;;;25.67;16.63;;;;;;;2.99;67.62;98583.75;5008759;28;20084;-82
2022/04/04 05:30:52;;;;;;;23.05;17.38;;;;;;;3.00;67.72;98576.66;5021609;28;20033;-81
2022/04/04 05:33:17;;;;;;;23.08;17.55;;;;;;;3.01;67.16;98586.97;5009572;28;20030;-81
2022/04/04 05:35:42;;;;;;;25.85;18.75;;;;;;;2.99;67.64;98590.88;5024367;28;20504;-82
2022/04/04 05:38:08;;;;;;;25.88;17.73;;;;;;;3.07;67.36;98576.63;5003098;28;20378;-81
2022/04/04 05:40:34;;;;;;;25.92;18.38;;;;;;;3.01;67.72;98584.34;5006629;28;20048;-82
2022/04/04 05:43:00;;;;;;;26.30;18.48;;;;;;;3.03;67.53;98576.25;4989954;28;20109;-82
2022/04/04 05:45:26;;;;;;;25.38;18.15;;;;;;;3.02;67.63;98571.97;4992165;28;20038;-82
2022/04/04 05:47:52;;;;;;;28.13;17.92;;;;;;;3.02;68.21;98571.97;5007925;28;20025;-82
2022/04/04 05:50:18;;;;;;;26.60;19.10;;;;;;;3.04;67.91;98559.41;4991136;28;20029;-82
2022/04/04 05:52:44;;;;;;;27.55;19.17;;;;;;;3.03;68.03;98555.16;5006271;28;20084;-81
2022/04/04 05:55:10;;;;;;;24.23;19.05;;;;;;;3.02;67.42;98556.16;4994201;28;20030;-81
2022/04/04 05:57:38;;;;;;;25.98;19.10;;;;;;;3.07;67.56;98558.19;5011515;28;20040;-81
2022/04/04 06:00:14;;;;;;;25.70;18.77;;;;;;;3.11;67.30;98551.47;5022273;28;20034;-81
2022/04/04 06:02:41;;;;;;;25.75;17.83;;;;;;;3.09;67.89;98538.50;5008624;28;20030;-81
2022/04/04 06:05:11;;;;;;;25.02;19.05;;;;;;;3.09;68.02;98537.69;4991418;28;20120;-81
2022/04/04 06:07:37;;;;;;;27.85;19.45;;;;;;;3.15;67.72;98547.41;5010759;28;20844;-82
2022/04/04 06:10:04;;;;;;;27.15;19.52;;;;;;;3.14;67.84;98535.25;5004577;28;20088;-82
2022/04/04 06:12:29;;;;;;;27.90;19.98;;;;;;;3.13;67.70;98544.16;4991184;28;20034;-81
2022/04/04 06:14:55;;;;;;;29.25;19.73;;;;;;;3.22;67.81;98535.00;5015444;28;20505;-81
2022/04/04 06:17:21;;;;;;;30.77;20.92;;;;;;;3.22;68.06;98530.53;4996606;28;20030;-81
2022/04/04 06:19:46;;;;;;;25.45;19.33;;;;;;;3.21;68.14;98541.31;5002822;28;20092;-81
2022/04/04 06:22:11;;;;;;;28.23;21.17;;;;;;;3.19;68.17;98538.88;5002140;28;20029;-81
2022/04/04 06:24:38;;;;;;;29.48;21.05;;;;;;;3.27;68.11;98528.09;4984370;28;20176;-81
2022/04/04 06:27:03;;;;;;;27.67;19.00;;;;;;;3.28;67.62;98523.63;5020560;28;20022;-81
2022/04/04 06:29:29;;;;;;;30.65;21.30;;;;;;;3.34;67.35;98533.34;4990043;28;20022;-81
2022/04/04 06:31:55;;;;;;;25.67;19.38;;;;;;;3.39;67.38;98515.03;5005104;28;20065;-81
2022/04/04 06:34:21;;;;;;;25.00;18.88;;;;;;;3.35;67.51;98522.56;5001395;28;20065;-81
2022/04/04 06:36:47;;;;;;;28.27;18.67;;;;;;;3.39;67.40;98515.03;5002719;28;20033;-82
2022/04/04 06:39:14;;;;;;;28.50;19.27;;;;;;;3.39;67.54;98507.13;5001443;28;20034;-81
2022/04/04 06:41:40;;;;;;;26.77;19.23;;;;;;;3.38;67.66;98501.06;5004299;28;20034;-81
2022/04/04 06:44:06;;;;;;;26.83;19.63;;;;;;;3.41;67.72;98502.44;5005733;28;20330;-81
2022/04/04 06:46:35;;;;;;;26.25;18.88;;;;;;;3.43;67.02;98497.81;5003005;28;20022;-81
2022/04/04 06:49:01;;;;;;;27.70;18.58;;;;;;;3.39;67.60;98494.75;5002961;28;20033;-81
2022/04/04 06:51:27;;;;;;;24.70;19.00;;;;;;;3.44;67.65;98489.66;4987177;28;20029;-81
2022/04/04 06:53:53;;;;;;;27.60;19.60;;;;;;;3.55;67.18;98496.09;5018387;28;20421;-80
2022/04/04 06:56:18;;;;;;;39.15;17.92;;;;;;;3.50;67.19;98488.81;4984496;28;20080;-81
2022/04/04 06:58:43;;;;;;;27.05;18.35;;;;;;;3.58;67.49;98482.50;4989684;28;20120;-81
2022/04/04 07:01:08;;;;;;;24.67;17.48;;;;;;;3.55;67.33;98486.34;5009012;28;20393;-81
2022/04/04 07:03:34;;;;;;;25.08;18.02;;;;;;;3.58;66.84;98469.28;5000153;28;20045;-81
2022/04/04 07:05:59;;;;;;;25.17;17.23;;;;;;;3.62;66.90;98473.94;4966187;28;20141;-81
2022/04/04 07:08:25;;;;;;;28.45;18.27;;;;;;;3.66;66.99;98458.47;4984166;28;20032;-82
2022/04/04 07:10:51;;;;;;;28.17;17.08;;;;;;;3.66;66.56;98469.03;4998797;28;20208;-81
2022/04/04 07:13:17;;;;;;;28.00;17.80;;;;;;;3.68;66.92;98464.34;5014713;28;20413;-81
2022/04/04 07:15:43;;;;;;;21.92;17.13;;;;;;;3.69;66.80;98458.06;5007306;28;20037;-81
2022/04/04 07:18:09;;;;;;;20.75;16.67;;;;;;;3.74;66.08;98455.56;4970999;28;20034;-82
2022/04/04 07:20:35;;;;;;;22.30;16.92;;;;;;;3.77;66.13;98450.69;5003973;28;20087;-82
2022/04/04 07:23:00;;;;;;;22.95;16.17;;;;;;;3.80;66.57;98446.78;5019957;28;20029;-82
2022/04/04 07:25:28;;;;;;;21.02;15.40;;;;;;;3.82;66.58;98447.41;5003927;28;20440;-82
2022/04/04 07:27:54;;;;;;;21.60;16.33;;;;;;;3.79;66.49;98432.81;4992892;28;20033;-81
2022/04/04 07:30:20;;;;;;;23.48;16.02;;;;;;;3.94;66.20;98432.47;5004716;28;20489;-81
2022/04/04 07:32:47;;;;;;;20.40;15.38;;;;;;;3.91;66.39;98424.97;5008689;28;20025;-81
2022/04/04 07:35:13;;;;;;;21.58;15.80;;;;;;;3.99;66.00;98426.53;5004850;28;20041;-82
2022/04/04 07:37:43;;;;;;;20.50;16.20;;;;;;;3.99;66.04;98419.44;4998332;28;20046;-81
2022/04/04 07:40:10;;;;;;;20.20;15.63;;;;;;;4.04;65.83;98403.72;5008614;28;20084;-81
2022/04/04 07:42:37;;;;;;;18.40;16.38;;;;;;;4.13;65.89;98399.00;5003311;28;20500;-81
2022/04/04 07:45:03;;;;;;;18.63;15.30;;;;;;;4.18;65.18;98404.41;4988838;28;20083;-81
2022/04/04 07:47:29;;;;;;;18.73;14.52;;;;;;;4.31;65.07;98405.09;5007889;28;20037;-81
2022/04/04 07:49:55;;;;;;;21.60;14.23;;;;;;;4.20;65.26;98403.19;5004692;28;20486;-81
2022/04/04 07:52:20;;;;;;;25.92;14.68;;;;;;;4.26;64.98;98391.72;5002801;28;20030;-81
2022/04/04 07:54:46;;;;;;;19.17;15.23;;;;;;;4.34;64.83;98388.81;5016042;28;20037;-81
2022/04/04 07:57:11;;;;;;;18.42;14.10;;;;;;;4.28;64.95;98376.47;5005257;28;20433;-81
2022/04/04 07:59:36;;;;;;;19.85;13.40;;;;;;;4.36;64.63;98397.34;4996340;28;20029;-81
2022/04/04 08:02:02;;;;;;;20.42;14.77;;;;;;;4.32;64.55;98390.88;5027089;28;20033;-81
2022/04/04 08:04:28;;;;;;;18.73;12.18;;;;;;;4.39;64.58;98370.47;5003863;28;20089;-82
2022/04/04 08:06:53;;;;;;;20.13;13.95;;;;;;;4.47;64.09;98370.19;4993872;28;20069;-81
2022/04/04 08:09:18;;;;;;;16.27;13.00;;;;;;;4.51;64.01;98373.19;4969734;28;20421;-82
2022/04/04 08:11:43;;;;;;;18.90;13.60;;;;;;;4.58;64.07;98360.69;5001231;28;20616;-79
2022/04/04 08:14:09;;;;;;;16.58;12.00;;;;;;;4.58;63.66;98352.78;5026985;28;20035;-79
2022/04/04 08:16:35;;;;;;;16.00;12.65;;;;;;;4.52;63.93;98365.00;4984209;28;20204;-79
2022/04/04 08:19:01;;;;;;;18.58;13.00;;;;;;;4.54;63.69;98357.66;4994037;28;20140;-78
2022/04/04 08:21:26;;;;;;;19.00;12.98;;;;;;;4.66;63.83;98356.94;4987341;28;20033;-78
2022/04/04 08:23:52;;;;;;;18.17;12.52;;;;;;;4.79;63.41;98344.34;5025192;28;20027;-79
2022/04/04 08:26:17;;;;;;;17.08;11.88;;;;;;;4.85;62.75;98346.09;5007136;28;20178;-78
2022/04/04 08:28:43;;;;;;;15.90;12.75;;;;;;;4.92;62.88;98353.94;5010632;28;20049;-79
2022/04/04 08:31:08;;;;;;;15.65;11.95;;;;;;;4.89;62.79;98330.59;5008445;28;20030;-78
2022/04/04 08:33:34;;;;;;;15.75;12.15;;;;;;;4.92;62.49;98317.75;5007598;28;20034;-79
2022/04/04 08:36:00;;;;;;;14.20;11.20;;;;;;;4.95;62.10;98325.22;5019392;28;20030;-79
2022/04/04 08:38:26;;;;;;;15.70;12.35;;;;;;;4.95;61.54;98327.06;4989969;28;20040;-78
2022/04/04 08:40:51;;;;;;;13.85;11.15;;;;;;;4.91;61.82;98318.78;5000565;28;20038;-78
2022/04/04 08:43:18;;;;;;;17.15;12.63;;;;;;;4.97;61.80;98323.16;5007040;28;20045;-79
2022/04/04 08:45:44;;;;;;;14.93;11.52;;;;;;;5.08;61.70;98311.00;5001164;28;20026;-78
2022/04/04 08:48:10;;;;;;;14.38;11.30;;;;;;;5.03;62.07;98316.97;5011410;28;20033;-78
2022/04/04 08:50:38;;;;;;;14.77;11.75;;;;;;;5.14;61.62;98315.38;5001222;28;20087;-78
2022/04/04 08:53:04;;;;;;;16.48;11.05;;;;;;;5.08;61.06;98295.13;4989469;28;20116;-78
2022/04/04 08:55:30;;;;;;;15.25;10.95;;;;;;;5.16;61.18;98300.91;5010569;28;20546;-79
2022/04/04 08:57:56;;;;;;;14.80;11.68;;;;;;;5.10;61.18;98293.88;5007298;28;20084;-78
2022/04/04 09:00:22;;;;;;;13.55;10.65;;;;;;;5.11;61.09;98310.56;5004968;28;20197;-79
2022/04/04 09:03:05;;;;;;;16.65;11.80;;;;;;;5.08;61.17;98292.50;5003125;28;20694;-79
2022/04/04 09:05:32;;;;;;;14.50;11.27;;;;;;;5.25;60.93;98291.59;5005851;28;20022;-78
2022/04/04 09:08:05;;;;;;;17.27;10.40;;;;;;;5.15;61.29;98290.56;5001442;28;20041;-79
2022/04/04 09:10:40;;;;;;;22.02;10.60;;;;;;;5.12;61.15;98296.28;4997835;28;20045;-79
2022/04/04 09:13:12;;;;;;;18.35;11.13;;;;;;;5.26;60.33;98282.63;5000931;28;20034;-80
2022/04/04 09:15:54;;;;;;;13.48;10.93;;;;;;;5.28;60.66;98277.13;4999997;28;20030;-79
2022/04/04 09:18:42;;;;;;;19.85;11.40;;;;;;;5.38;60.42;98261.47;5001638;28;20033;-79
2022/04/04 09:21:19;;;;;;;18.00;11.25;;;;;;;5.38;60.73;98265.94;5000767;28;20022;-81
2022/04/04 09:23:50;;;;;;;14.00;10.50;;;;;;;5.30;60.56;98248.59;5008425;28;20029;-79
2022/04/04 09:26:25;;;;;;;14.65;10.73;;;;;;;5.26;60.24;98250.09;5001213;28;20026;-79
2022/04/04 09:28:51;;;;;;;18.87;11.17;;;;;;;5.26;60.30;98231.56;5007934;28;20033;-79
2022/04/04 09:31:16;;;;;;;15.23;10.20;;;;;;;5.30;60.01;98232.72;4986724;28;20279;-79
2022/04/04 09:33:42;;;;;;;12.50;9.40;;;;;;;5.32;60.28;98228.81;5006547;28;20026;-79
2022/04/04 09:36:08;;;;;;;15.80;10.23;;;;;;;5.43;59.72;98218.44;4998044;28;20049;-79
2022/04/04 09:38:34;;;;;;;12.45;9.80;;;;;;;5.37;60.25;98214.09;5017074;28;20133;-79
2022/04/04 09:41:15;;;;;;;12.40;9.80;;;;;;;5.36;60.08;98201.88;4992188;28;20042;-79
2022/04/04 09:43:58;;;;;;;13.85;9.50;;;;;;;5.31;59.97;98210.50;4998128;28;20036;-80
2022/04/04 09:47:02;;;;;;;16.08;10.10;;;;;;;5.40;60.18;98203.81;5011013;28;20086;-80
2022/04/04 09:49:28;;;;;;;12.98;9.13;;;;;;;5.42;59.28;98183.22;5008301;28;20045;-80
2022/04/04 09:51:54;;;;;;;10.45;8.57;;;;;;;5.35;59.73;98173.81;4986529;28;20876;-80
2022/04/04 09:54:24;;;;;;;11.90;9.30;;;;;;;5.36;59.62;98176.22;5010837;28;20037;-80
2022/04/04 09:56:58;;;;;;;10.38;8.55;;;;;;;5.44;60.03;98177.72;5011930;28;20033;-80
2022/04/04 09:59:25;;;;;;;9.43;7.35;;;;;;;5.43;59.53;98168.97;5019445;28;20120;-81
2022/04/04 10:01:50;;;;;;;15.98;8.80;;;;;;;5.49;59.13;98165.41;4997204;28;20070;-82
2022/04/04 10:04:18;;;;;;;12.85;8.57;;;;;;;5.55;59.20;98150.44;4996452;28;20124;-82
2022/04/04 10:06:47;;;;;;;12.57;8.23;;;;;;;5.49;59.36;98136.28;5014385;28;20033;-81
2022/04/04 10:09:13;;;;;;;11.15;7.10;;;;;;;5.61;58.66;98139.72;5006849;28;20040;-81
2022/04/04 10:11:40;;;;;;;10.82;7.22;;;;;;;5.61;58.89;98115.09;5002808;28;20038;-81
2022/04/04 10:14:05;;;;;;;11.30;8.02;;;;;;;5.60;58.40;98119.56;5017759;28;20037;-81
2022/04/04 10:16:32;;;;;;;10.18;7.53;;;;;;;5.62;58.44;98121.97;4985898;28;20076;-81
2022/04/04 10:18:58;;;;;;;12.43;7.60;;;;;;;5.68;57.95;98124.50;5005636;28;20488;-81
2022/04/04 10:21:25;;;;;;;9.70;7.75;;;;;;;5.66;58.32;98113.34;4997315;28;20080;-81
2022/04/04 10:23:55;;;;;;;8.13;7.22;;;;;;;5.53;58.33;98083.69;5006050;28;20050;-81
2022/04/04 10:26:25;;;;;;;8.25;6.78;;;;;;;5.66;58.78;98099.28;5020210;28;20044;-81
2022/04/04 10:28:50;;;;;;;9.98;7.53;;;;;;;5.77;58.57;98082.56;5004524;28;20053;-81
2022/04/04 10:31:27;;;;;;;8.43;7.18;;;;;;;5.82;58.49;98072.06;4994260;28;20038;-81
2022/04/04 10:33:58;;;;;;;9.38;6.65;;;;;;;5.77;59.47;98067.50;5005038;28;20108;-81
2022/04/04 10:36:25;;;;;;;11.35;8.38;;;;;;;5.77;59.57;98058.72;5000753;28;20285;-81
2022/04/04 10:38:54;;;;;;;10.18;7.72;;;;;;;5.85;60.20;98069.00;5018773;28;20429;-81
2022/04/04 10:41:21;;;;;;;8.85;7.40;;;;;;;5.76;60.00;98041.25;5003955;28;20026;-81
2022/04/04 10:43:51;;;;;;;12.07;7.50;;;;;;;5.81;60.17;98058.03;4999376;28;20029;-81
2022/04/04 10:46:22;;;;;;;9.63;7.95;;;;;;;5.92;59.68;98040.50;5000743;28;20037;-81
2022/04/04 10:48:59;;;;;;;10.02;7.97;;;;;;;5.93;59.78;98013.00;4984794;28;20560;-81
2022/04/04 10:51:31;;;;;;;8.85;7.50;;;;;;;6.03;59.59;98023.75;5004595;28;20038;-81
2022/04/04 10:53:59;;;;;;;8.68;7.72;;;;;;;6.11;58.52;98031.31;5015572;28;20549;-81
2022/04/04 10:56:28;;;;;;;10.13;7.53;;;;;;;6.18;58.71;98010.75;5007532;28;20029;-81
2022/04/04 10:59:15;;;;;;;10.60;7.72;;;;;;;6.21;57.70;97998.88;5003372;28;20025;-82
2022/04/04 11:01:45;;;;;;;8.70;6.82;;;;;;;6.24;57.36;98001.88;5016761;28;20065;-81
2022/04/04 11:04:31;;;;;;;8.73;7.82;;;;;;;6.26;57.80;97991.00;5002030;28;20062;-81
2022/04/04 11:09:57;;;;;;;9.95;7.45;;;;;;;6.40;57.07;97994.97;5016146;28;20044;-81
2022/04/04 11:12:25;;;;;;;9.05;7.30;;;;;;;6.30;57.38;97977.03;4992379;28;20049;-83
2022/04/04 11:14:55;;;;;;;10.73;7.68;;;;;;;6.42;57.78;97971.66;4991967;28;20034;-84
2022/04/04 11:17:36;;;;;;;11.75;7.82;;;;;;;6.35;57.79;97958.56;5007043;28;20065;-83
2022/04/04 11:20:10;;;;;;;11.30;6.15;;;;;;;6.54;57.32;97967.03;4990162;28;20038;-84
2022/04/04 11:22:41;;;;;;;11.63;7.97;;;;;;;6.58;57.72;97963.66;5004977;28;20022;-84
2022/04/04 11:25:34;;;;;;;11.57;7.20;;;;;;;6.58;57.34;97950.41;5005703;28;20057;-84
2022/04/04 11:28:01;;;;;;;9.77;7.85;;;;;;;6.53;57.54;97944.25;5010297;28;20033;-83
2022/04/04 11:30:27;;;;;;;8.15;7.32;;;;;;;6.53;57.49;97947.69;5007151;28;20472;-84
2022/04/04 11:32:57;;;;;;;9.85;7.70;;;;;;;6.53;58.22;97929.13;5002801;28;20034;-84